LKPR Airport Information

Runway Information
Runway 04 Length 6955 ft width 197 ft
Elevation 1247 ft Threshold 0 ft Heading 37
Runway 22 Length 6955 ft Width 197 ft
Elevation 1174 ft Threshold 0 ft Heading 217
Runway 06 Length 12189 ft width 148 ft
Elevation 1202 ft Threshold 0 ft Heading 65
Runway 24 Length 12189 ft Width 148 ft
Elevation 1158 ft Threshold 0 ft Heading 245
Runway 13 Length 10663 ft width 148 ft
Elevation 1160 ft Threshold 0 ft Heading 127
Runway 31 Length 10663 ft Width 148 ft
Elevation 1232 ft Threshold 0 ft Heading 307
Airport Frequencies
Type APP Name PRAHA APP Frequency 120.525 MHZ
Type ATIS Name ATIS Frequency 122.15 MHZ
Type CLD Name CLNC DEL Frequency 120.05 MHZ
Type GND Name GND Frequency 121.9 MHZ
Type INFO Name INFO Frequency 118.3 MHZ
Type RDR Name RADAR Frequency 119 MHZ
Type TWR Name TWR Frequency 118.1 MHZ
Airport Navaids
Type VOR-DME Name Neratovice Frequency 108600 KHZ
Type VOR-DME Name Praha Frequency 112600 KHZ
Type NDB Name Ruzyne Middle Frequency 307 KHZ
Type NDB Name Ruzyne North Frequency 356 KHZ
Airport Weather Information & NOTAM
ADDS - METARS form results

(1137 UTC 18 September 2020)
Data provider http://aviationweather.gov/metar/data/
 
METAR text: LKPR 181130Z 07007KT 030V110 CAVOK 17/03 Q1028 NOSIG
Conditions at: LKPR (PRAGUE/RUZYNE , CZ) observed 1130 UTC 18 September 2020
Temperature: 17.0°C (63°F)
Dewpoint: 3.0°C (37°F) [RH = 39%]
Pressure (altimeter): 30.35 inches Hg (1028.0 mb)
Winds: from the ENE (70 degrees) at 8 MPH (7 knots; 3.6 m/s)
Visibility: 6 or more miles (10+ km)
Ceiling: ceiling and visibility are OK
Clouds: unknown
Weather: no significant weather observed at this time

METAR text: LKPR 181100Z 07008KT 030V110 CAVOK 17/04 Q1029 NOSIG
Conditions at: LKPR (PRAGUE/RUZYNE , CZ) observed 1100 UTC 18 September 2020
Temperature: 17.0°C (63°F)
Dewpoint: 4.0°C (39°F) [RH = 42%]
Pressure (altimeter): 30.38 inches Hg (1029.0 mb)
Winds: from the ENE (70 degrees) at 9 MPH (8 knots; 4.1 m/s)
Visibility: 6 or more miles (10+ km)
Ceiling: ceiling and visibility are OK
Clouds: unknown
Weather: no significant weather observed at this time

Forecast for: LKPR (PRAGUE/RUZYNE , CZ)
Text: TAF LKPR 181100Z 1812/1918 07008KT CAVOK
Forecast period: 1200 UTC 18 September 2020 to 1800 UTC 19 September 2020
Forecast type: FROM: standard forecast or significant change
Winds: from the ENE (70 degrees) at 9 MPH (8 knots; 4.1 m/s)
Visibility: 6 or more miles (10+ km)
Ceiling: unknown
Clouds: missing
Weather: NSW  (no significant weather)